Terminal Aerodrome Forecast
Issued by NWS

Home | Current Version | Previous Version | Text Only | Print | Product List | Glossary On
Versions: 1 2 3 4 5 6 7 8 9 10 11 12 13 14 15 16 17
000
FTUS46 KMTR 181726
TAFOAK
TAF
KOAK 181726Z 1818/1924 14008KT 3SM BR VCSH OVC006
      TEMPO 1818/1822 1SM BR OVC004
     FM182200 23007KT 5SM -RA OVC014
     FM190300 26008KT P6SM -SHRA SCT025 BKN030
     FM190900 27008KT P6SM -SHRA FEW015 SCT025 BKN200
     FM191300 28004KT 6SM -SHRA SCT020 BKN050 BKN200
     FM192000 30004KT P6SM VCSH BKN020 BKN050=

USA.gov is the U.S. government's official web portal to all federal, state and local government web resources and services.